sensor_id;sensor_type;location;lat;lon;timestamp;temperature;humidity
25342;DHT22;13298;48.792;9.154;2023-08-30T00:00:18;12.70;99.90
25342;DHT22;13298;48.792;9.154;2023-08-30T00:02:44;12.80;99.90
25342;DHT22;13298;48.792;9.154;2023-08-30T00:05:10;12.80;99.90
25342;DHT22;13298;48.792;9.154;2023-08-30T00:07:36;12.80;99.90
25342;DHT22;13298;48.792;9.154;2023-08-30T00:10:02;12.80;99.90
25342;DHT22;13298;48.792;9.154;2023-08-30T00:12:29;12.80;99.90
25342;DHT22;13298;48.792;9.154;2023-08-30T00:14:55;12.80;99.90
25342;DHT22;13298;48.792;9.154;2023-08-30T00:17:22;12.80;99.90
25342;DHT22;13298;48.792;9.154;2023-08-30T00:19:48;12.80;99.90
25342;DHT22;13298;48.792;9.154;2023-08-30T00:22:14;12.80;99.90
25342;DHT22;13298;48.792;9.154;2023-08-30T00:24:40;12.70;99.90
25342;DHT22;13298;48.792;9.154;2023-08-30T00:27:05;12.70;99.90
25342;DHT22;13298;48.792;9.154;2023-08-30T00:29:31;12.70;99.90
25342;DHT22;13298;48.792;9.154;2023-08-30T00:31:57;12.70;99.90
25342;DHT22;13298;48.792;9.154;2023-08-30T00:34:23;12.70;99.90
25342;DHT22;13298;48.792;9.154;2023-08-30T00:36:48;12.70;99.90
25342;DHT22;13298;48.792;9.154;2023-08-30T00:39:14;12.70;99.90
25342;DHT22;13298;48.792;9.154;2023-08-30T00:41:40;12.70;99.90
25342;DHT22;13298;48.792;9.154;2023-08-30T00:44:06;12.70;99.90
25342;DHT22;13298;48.792;9.154;2023-08-30T00:46:33;12.70;99.90
25342;DHT22;13298;48.792;9.154;2023-08-30T00:49:00;12.60;99.90
25342;DHT22;13298;48.792;9.154;2023-08-30T00:51:27;12.60;99.90
25342;DHT22;13298;48.792;9.154;2023-08-30T00:53:54;12.60;99.90
25342;DHT22;13298;48.792;9.154;2023-08-30T00:56:20;12.60;99.90
25342;DHT22;13298;48.792;9.154;2023-08-30T00:58:47;12.60;99.90
25342;DHT22;13298;48.792;9.154;2023-08-30T01:01:15;12.60;99.90
25342;DHT22;13298;48.792;9.154;2023-08-30T01:03:42;12.60;99.90
25342;DHT22;13298;48.792;9.154;2023-08-30T01:06:07;12.60;99.90
25342;DHT22;13298;48.792;9.154;2023-08-30T01:08:34;12.60;99.90
25342;DHT22;13298;48.792;9.154;2023-08-30T01:13:58;12.60;99.90
25342;DHT22;13298;48.792;9.154;2023-08-30T01:16:27;12.50;99.90
25342;DHT22;13298;48.792;9.154;2023-08-30T01:18:56;12.50;99.90
25342;DHT22;13298;48.792;9.154;2023-08-30T01:21:48;12.40;99.90
25342;DHT22;13298;48.792;9.154;2023-08-30T01:24:26;12.40;99.90
25342;DHT22;13298;48.792;9.154;2023-08-30T01:27:12;12.40;99.90
25342;DHT22;13298;48.792;9.154;2023-08-30T01:29:40;12.30;99.90
25342;DHT22;13298;48.792;9.154;2023-08-30T01:32:09;12.20;99.90
25342;DHT22;13298;48.792;9.154;2023-08-30T01:34:40;12.20;99.90
25342;DHT22;13298;48.792;9.154;2023-08-30T01:37:07;12.10;99.90
25342;DHT22;13298;48.792;9.154;2023-08-30T01:39:37;12.10;99.90
25342;DHT22;13298;48.792;9.154;2023-08-30T01:42:04;12.10;99.90
25342;DHT22;13298;48.792;9.154;2023-08-30T01:44:31;12.00;99.90
25342;DHT22;13298;48.792;9.154;2023-08-30T01:46:57;12.00;99.90
25342;DHT22;13298;48.792;9.154;2023-08-30T01:49:24;11.90;99.90
25342;DHT22;13298;48.792;9.154;2023-08-30T01:51:51;11.80;99.90
25342;DHT22;13298;48.792;9.154;2023-08-30T01:54:18;11.80;99.90
25342;DHT22;13298;48.792;9.154;2023-08-30T01:56:45;11.80;99.90
25342;DHT22;13298;48.792;9.154;2023-08-30T01:59:12;11.70;99.90
25342;DHT22;13298;48.792;9.154;2023-08-30T02:01:38;11.70;99.90
25342;DHT22;13298;48.792;9.154;2023-08-30T02:04:04;11.70;99.90
25342;DHT22;13298;48.792;9.154;2023-08-30T02:09:25;11.70;99.90
25342;DHT22;13298;48.792;9.154;2023-08-30T02:11:54;11.70;99.90
25342;DHT22;13298;48.792;9.154;2023-08-30T02:14:21;11.70;99.90
25342;DHT22;13298;48.792;9.154;2023-08-30T02:16:48;11.70;99.90
25342;DHT22;13298;48.792;9.154;2023-08-30T02:19:14;11.70;99.90
25342;DHT22;13298;48.792;9.154;2023-08-30T02:21:46;11.70;99.90
25342;DHT22;13298;48.792;9.154;2023-08-30T02:24:13;11.70;99.90
25342;DHT22;13298;48.792;9.154;2023-08-30T02:26:38;11.70;99.90
25342;DHT22;13298;48.792;9.154;2023-08-30T02:29:04;11.70;99.90
25342;DHT22;13298;48.792;9.154;2023-08-30T02:31:30;11.70;99.90
25342;DHT22;13298;48.792;9.154;2023-08-30T02:33:56;11.60;99.90
25342;DHT22;13298;48.792;9.154;2023-08-30T02:36:21;11.60;99.90
25342;DHT22;13298;48.792;9.154;2023-08-30T02:38:47;11.60;99.90
25342;DHT22;13298;48.792;9.154;2023-08-30T02:41:13;11.50;99.90
25342;DHT22;13298;48.792;9.154;2023-08-30T02:43:38;11.50;99.90
25342;DHT22;13298;48.792;9.154;2023-08-30T02:46:04;11.50;99.90
25342;DHT22;13298;48.792;9.154;2023-08-30T02:48:33;11.50;99.90
25342;DHT22;13298;48.792;9.154;2023-08-30T02:50:59;11.50;99.90
25342;DHT22;13298;48.792;9.154;2023-08-30T02:53:25;11.50;99.90
25342;DHT22;13298;48.792;9.154;2023-08-30T02:55:51;11.50;99.90
25342;DHT22;13298;48.792;9.154;2023-08-30T02:58:16;11.50;99.90
25342;DHT22;13298;48.792;9.154;2023-08-30T03:00:42;11.50;99.90
25342;DHT22;13298;48.792;9.154;2023-08-30T03:03:08;11.50;99.90
25342;DHT22;13298;48.792;9.154;2023-08-30T03:05:34;11.50;99.90
25342;DHT22;13298;48.792;9.154;2023-08-30T03:07:59;11.50;99.90
25342;DHT22;13298;48.792;9.154;2023-08-30T03:10:25;11.50;99.90
25342;DHT22;13298;48.792;9.154;2023-08-30T03:12:52;11.50;99.90
25342;DHT22;13298;48.792;9.154;2023-08-30T03:15:17;11.60;99.90
25342;DHT22;13298;48.792;9.154;2023-08-30T03:17:43;11.60;99.90
25342;DHT22;13298;48.792;9.154;2023-08-30T03:20:09;11.70;99.90
25342;DHT22;13298;48.792;9.154;2023-08-30T03:22:35;11.70;99.90
25342;DHT22;13298;48.792;9.154;2023-08-30T03:25:01;11.70;99.90
25342;DHT22;13298;48.792;9.154;2023-08-30T03:27:29;11.80;99.90
25342;DHT22;13298;48.792;9.154;2023-08-30T03:29:55;11.80;99.90
25342;DHT22;13298;48.792;9.154;2023-08-30T03:32:21;11.90;99.90
25342;DHT22;13298;48.792;9.154;2023-08-30T03:34:47;11.90;99.90
25342;DHT22;13298;48.792;9.154;2023-08-30T03:37:16;11.90;99.90
25342;DHT22;13298;48.792;9.154;2023-08-30T03:39:42;12.00;99.90
25342;DHT22;13298;48.792;9.154;2023-08-30T03:42:08;12.00;99.90
25342;DHT22;13298;48.792;9.154;2023-08-30T03:44:34;12.10;99.90
25342;DHT22;13298;48.792;9.154;2023-08-30T03:47:00;12.10;99.90
25342;DHT22;13298;48.792;9.154;2023-08-30T03:49:26;12.10;99.90
25342;DHT22;13298;48.792;9.154;2023-08-30T03:51:52;12.10;99.90
25342;DHT22;13298;48.792;9.154;2023-08-30T03:54:17;12.20;99.90
25342;DHT22;13298;48.792;9.154;2023-08-30T03:56:43;12.20;99.90
25342;DHT22;13298;48.792;9.154;2023-08-30T03:59:10;12.20;99.90
25342;DHT22;13298;48.792;9.154;2023-08-30T04:01:36;12.20;99.90
25342;DHT22;13298;48.792;9.154;2023-08-30T04:04:02;12.20;99.90
25342;DHT22;13298;48.792;9.154;2023-08-30T04:06:27;12.20;99.90
25342;DHT22;13298;48.792;9.154;2023-08-30T04:08:53;12.20;99.90
25342;DHT22;13298;48.792;9.154;2023-08-30T04:11:19;12.20;99.90
25342;DHT22;13298;48.792;9.154;2023-08-30T04:13:44;12.20;99.90
25342;DHT22;13298;48.792;9.154;2023-08-30T04:16:10;12.20;99.90
25342;DHT22;13298;48.792;9.154;2023-08-30T04:18:36;12.20;99.90
25342;DHT22;13298;48.792;9.154;2023-08-30T04:21:02;12.20;99.90
25342;DHT22;13298;48.792;9.154;2023-08-30T04:23:28;12.20;99.90
25342;DHT22;13298;48.792;9.154;2023-08-30T04:25:55;12.30;99.90
25342;DHT22;13298;48.792;9.154;2023-08-30T04:28:21;12.30;99.90
25342;DHT22;13298;48.792;9.154;2023-08-30T04:30:46;12.30;99.90
25342;DHT22;13298;48.792;9.154;2023-08-30T04:33:12;12.30;99.90
25342;DHT22;13298;48.792;9.154;2023-08-30T04:35:38;12.30;99.90
25342;DHT22;13298;48.792;9.154;2023-08-30T04:38:04;12.30;99.90
25342;DHT22;13298;48.792;9.154;2023-08-30T04:40:31;12.30;99.90
25342;DHT22;13298;48.792;9.154;2023-08-30T04:42:58;12.30;99.90
25342;DHT22;13298;48.792;9.154;2023-08-30T04:45:24;12.30;99.90
25342;DHT22;13298;48.792;9.154;2023-08-30T04:47:50;12.30;99.90
25342;DHT22;13298;48.792;9.154;2023-08-30T04:50:15;12.30;99.90
25342;DHT22;13298;48.792;9.154;2023-08-30T04:52:42;12.30;99.90
25342;DHT22;13298;48.792;9.154;2023-08-30T04:55:08;12.40;99.90
25342;DHT22;13298;48.792;9.154;2023-08-30T04:57:34;12.40;99.90
25342;DHT22;13298;48.792;9.154;2023-08-30T05:00:00;12.40;99.90
25342;DHT22;13298;48.792;9.154;2023-08-30T05:02:29;12.40;99.90
25342;DHT22;13298;48.792;9.154;2023-08-30T05:04:55;12.40;99.90
25342;DHT22;13298;48.792;9.154;2023-08-30T05:07:21;12.50;99.90
25342;DHT22;13298;48.792;9.154;2023-08-30T05:09:47;12.50;99.90
25342;DHT22;13298;48.792;9.154;2023-08-30T05:12:13;12.50;99.90
25342;DHT22;13298;48.792;9.154;2023-08-30T05:14:38;12.50;99.90
25342;DHT22;13298;48.792;9.154;2023-08-30T05:17:06;12.60;99.90
25342;DHT22;13298;48.792;9.154;2023-08-30T05:19:31;12.60;99.90
25342;DHT22;13298;48.792;9.154;2023-08-30T05:21:57;12.60;99.90
25342;DHT22;13298;48.792;9.154;2023-08-30T05:24:23;12.60;99.90
25342;DHT22;13298;48.792;9.154;2023-08-30T05:26:48;12.70;99.90
25342;DHT22;13298;48.792;9.154;2023-08-30T05:29:14;12.70;99.90
25342;DHT22;13298;48.792;9.154;2023-08-30T05:31:41;12.80;99.90
25342;DHT22;13298;48.792;9.154;2023-08-30T05:34:07;12.80;99.90
25342;DHT22;13298;48.792;9.154;2023-08-30T05:36:32;12.80;99.90
25342;DHT22;13298;48.792;9.154;2023-08-30T05:38:58;12.80;99.90
25342;DHT22;13298;48.792;9.154;2023-08-30T05:41:24;12.80;99.90
25342;DHT22;13298;48.792;9.154;2023-08-30T05:43:50;12.90;99.90
25342;DHT22;13298;48.792;9.154;2023-08-30T05:46:16;12.90;99.90
25342;DHT22;13298;48.792;9.154;2023-08-30T05:48:42;12.90;99.90
25342;DHT22;13298;48.792;9.154;2023-08-30T05:51:08;13.00;99.90
25342;DHT22;13298;48.792;9.154;2023-08-30T05:53:34;13.00;99.90
25342;DHT22;13298;48.792;9.154;2023-08-30T05:56:00;13.10;99.90
25342;DHT22;13298;48.792;9.154;2023-08-30T05:58:25;13.10;99.90
25342;DHT22;13298;48.792;9.154;2023-08-30T06:00:51;13.20;99.90
25342;DHT22;13298;48.792;9.154;2023-08-30T06:03:17;13.30;99.90
25342;DHT22;13298;48.792;9.154;2023-08-30T06:05:42;13.30;99.90
25342;DHT22;13298;48.792;9.154;2023-08-30T06:08:08;13.30;99.90
25342;DHT22;13298;48.792;9.154;2023-08-30T06:10:35;13.40;99.90
25342;DHT22;13298;48.792;9.154;2023-08-30T06:13:01;13.40;99.90
25342;DHT22;13298;48.792;9.154;2023-08-30T06:15:28;13.50;99.90
25342;DHT22;13298;48.792;9.154;2023-08-30T06:17:54;13.50;99.90
25342;DHT22;13298;48.792;9.154;2023-08-30T06:20:19;13.70;99.90
25342;DHT22;13298;48.792;9.154;2023-08-30T06:22:45;13.70;99.90
25342;DHT22;13298;48.792;9.154;2023-08-30T06:25:11;13.80;99.90
25342;DHT22;13298;48.792;9.154;2023-08-30T06:27:42;13.90;99.90
25342;DHT22;13298;48.792;9.154;2023-08-30T06:30:10;14.00;99.90
25342;DHT22;13298;48.792;9.154;2023-08-30T06:32:36;14.00;99.90
25342;DHT22;13298;48.792;9.154;2023-08-30T06:35:01;14.10;99.90
25342;DHT22;13298;48.792;9.154;2023-08-30T06:37:28;14.20;99.90
25342;DHT22;13298;48.792;9.154;2023-08-30T06:39:53;14.20;99.90
25342;DHT22;13298;48.792;9.154;2023-08-30T06:42:19;14.20;99.90
25342;DHT22;13298;48.792;9.154;2023-08-30T06:44:45;14.30;99.90
25342;DHT22;13298;48.792;9.154;2023-08-30T06:47:10;14.30;99.90
25342;DHT22;13298;48.792;9.154;2023-08-30T06:49:36;14.40;99.90
25342;DHT22;13298;48.792;9.154;2023-08-30T06:52:02;14.50;99.90
25342;DHT22;13298;48.792;9.154;2023-08-30T06:54:32;14.50;99.90
25342;DHT22;13298;48.792;9.154;2023-08-30T06:57:00;14.60;99.90
25342;DHT22;13298;48.792;9.154;2023-08-30T06:59:27;14.60;99.90
25342;DHT22;13298;48.792;9.154;2023-08-30T07:01:53;14.70;99.90
25342;DHT22;13298;48.792;9.154;2023-08-30T07:04:18;14.80;99.90
25342;DHT22;13298;48.792;9.154;2023-08-30T07:06:44;14.80;99.90
25342;DHT22;13298;48.792;9.154;2023-08-30T07:09:10;14.80;99.90
25342;DHT22;13298;48.792;9.154;2023-08-30T07:11:37;14.90;99.90
25342;DHT22;13298;48.792;9.154;2023-08-30T07:14:04;14.90;99.90
25342;DHT22;13298;48.792;9.154;2023-08-30T07:16:30;14.90;99.90
25342;DHT22;13298;48.792;9.154;2023-08-30T07:18:57;14.90;99.90
25342;DHT22;13298;48.792;9.154;2023-08-30T07:21:23;14.90;99.90
25342;DHT22;13298;48.792;9.154;2023-08-30T07:23:49;14.90;99.90
25342;DHT22;13298;48.792;9.154;2023-08-30T07:26:15;14.90;99.90
25342;DHT22;13298;48.792;9.154;2023-08-30T07:28:40;14.90;99.90
25342;DHT22;13298;48.792;9.154;2023-08-30T07:31:07;14.90;99.90
25342;DHT22;13298;48.792;9.154;2023-08-30T07:33:32;15.00;99.90
25342;DHT22;13298;48.792;9.154;2023-08-30T07:35:58;15.00;99.90
25342;DHT22;13298;48.792;9.154;2023-08-30T07:38:24;15.00;99.90
25342;DHT22;13298;48.792;9.154;2023-08-30T07:40:50;15.00;99.90
25342;DHT22;13298;48.792;9.154;2023-08-30T07:43:15;15.10;99.90
25342;DHT22;13298;48.792;9.154;2023-08-30T07:45:41;15.10;99.90
25342;DHT22;13298;48.792;9.154;2023-08-30T07:48:07;15.20;99.90
25342;DHT22;13298;48.792;9.154;2023-08-30T07:50:32;15.20;99.90
25342;DHT22;13298;48.792;9.154;2023-08-30T07:52:58;15.30;99.90
25342;DHT22;13298;48.792;9.154;2023-08-30T07:55:24;15.40;99.90
25342;DHT22;13298;48.792;9.154;2023-08-30T07:57:50;15.50;99.90
25342;DHT22;13298;48.792;9.154;2023-08-30T08:00:15;15.50;99.90
25342;DHT22;13298;48.792;9.154;2023-08-30T08:02:41;15.60;99.90
25342;DHT22;13298;48.792;9.154;2023-08-30T08:05:07;15.60;99.90
25342;DHT22;13298;48.792;9.154;2023-08-30T08:07:33;15.70;99.90
25342;DHT22;13298;48.792;9.154;2023-08-30T08:09:59;15.80;99.90
25342;DHT22;13298;48.792;9.154;2023-08-30T08:12:26;15.90;99.90
25342;DHT22;13298;48.792;9.154;2023-08-30T08:14:52;16.00;99.90
25342;DHT22;13298;48.792;9.154;2023-08-30T08:17:18;16.20;99.90
25342;DHT22;13298;48.792;9.154;2023-08-30T08:19:44;16.20;99.90
25342;DHT22;13298;48.792;9.154;2023-08-30T08:22:09;16.30;99.90
25342;DHT22;13298;48.792;9.154;2023-08-30T08:24:35;16.40;99.90
25342;DHT22;13298;48.792;9.154;2023-08-30T08:27:01;16.50;99.90
25342;DHT22;13298;48.792;9.154;2023-08-30T08:29:27;16.60;99.90
25342;DHT22;13298;48.792;9.154;2023-08-30T08:31:54;16.60;99.90
25342;DHT22;13298;48.792;9.154;2023-08-30T08:34:19;16.60;99.90
25342;DHT22;13298;48.792;9.154;2023-08-30T08:36:45;16.60;99.90
25342;DHT22;13298;48.792;9.154;2023-08-30T08:39:11;16.60;99.90
25342;DHT22;13298;48.792;9.154;2023-08-30T08:41:41;16.70;99.90
25342;DHT22;13298;48.792;9.154;2023-08-30T08:44:09;16.90;99.90
25342;DHT22;13298;48.792;9.154;2023-08-30T08:46:39;16.90;99.90
25342;DHT22;13298;48.792;9.154;2023-08-30T08:49:11;17.00;99.90
25342;DHT22;13298;48.792;9.154;2023-08-30T08:51:43;17.10;99.90
25342;DHT22;13298;48.792;9.154;2023-08-30T08:54:11;17.20;99.90
25342;DHT22;13298;48.792;9.154;2023-08-30T08:56:38;17.30;99.90
25342;DHT22;13298;48.792;9.154;2023-08-30T08:59:04;17.30;99.90
25342;DHT22;13298;48.792;9.154;2023-08-30T09:01:33;17.50;99.90
25342;DHT22;13298;48.792;9.154;2023-08-30T09:04:07;17.80;99.90
25342;DHT22;13298;48.792;9.154;2023-08-30T09:06:35;18.00;99.90
25342;DHT22;13298;48.792;9.154;2023-08-30T09:09:02;18.20;99.90
25342;DHT22;13298;48.792;9.154;2023-08-30T09:11:29;18.30;99.90
25342;DHT22;13298;48.792;9.154;2023-08-30T09:13:55;18.40;99.90
25342;DHT22;13298;48.792;9.154;2023-08-30T09:16:21;18.40;99.90
25342;DHT22;13298;48.792;9.154;2023-08-30T09:19:05;18.60;99.90
25342;DHT22;13298;48.792;9.154;2023-08-30T09:21:32;18.70;99.90
25342;DHT22;13298;48.792;9.154;2023-08-30T09:24:02;18.80;99.90
25342;DHT22;13298;48.792;9.154;2023-08-30T09:26:29;18.90;99.90
25342;DHT22;13298;48.792;9.154;2023-08-30T09:29:02;18.90;99.90
25342;DHT22;13298;48.792;9.154;2023-08-30T09:31:38;19.00;99.90
25342;DHT22;13298;48.792;9.154;2023-08-30T09:34:05;19.00;99.90
25342;DHT22;13298;48.792;9.154;2023-08-30T09:36:41;18.90;99.90
25342;DHT22;13298;48.792;9.154;2023-08-30T09:39:12;18.90;99.90
25342;DHT22;13298;48.792;9.154;2023-08-30T09:41:42;18.90;99.90
25342;DHT22;13298;48.792;9.154;2023-08-30T09:44:10;18.80;99.90
25342;DHT22;13298;48.792;9.154;2023-08-30T09:46:50;18.80;99.90
25342;DHT22;13298;48.792;9.154;2023-08-30T09:49:43;18.70;99.90
25342;DHT22;13298;48.792;9.154;2023-08-30T09:52:12;18.70;99.90
25342;DHT22;13298;48.792;9.154;2023-08-30T09:54:42;18.50;99.90
25342;DHT22;13298;48.792;9.154;2023-08-30T09:57:10;18.50;99.90
25342;DHT22;13298;48.792;9.154;2023-08-30T09:59:36;18.60;99.90
25342;DHT22;13298;48.792;9.154;2023-08-30T10:02:03;18.50;99.90
25342;DHT22;13298;48.792;9.154;2023-08-30T10:04:31;18.60;99.90
25342;DHT22;13298;48.792;9.154;2023-08-30T10:06:58;18.60;99.90
25342;DHT22;13298;48.792;9.154;2023-08-30T10:09:25;18.60;99.90
25342;DHT22;13298;48.792;9.154;2023-08-30T10:11:51;18.70;99.90
25342;DHT22;13298;48.792;9.154;2023-08-30T10:14:18;18.80;99.90
25342;DHT22;13298;48.792;9.154;2023-08-30T10:16:45;19.00;99.90
25342;DHT22;13298;48.792;9.154;2023-08-30T10:19:15;19.20;99.90
25342;DHT22;13298;48.792;9.154;2023-08-30T10:21:43;19.50;99.90
25342;DHT22;13298;48.792;9.154;2023-08-30T10:24:15;19.60;99.90
25342;DHT22;13298;48.792;9.154;2023-08-30T10:26:42;19.70;99.90
25342;DHT22;13298;48.792;9.154;2023-08-30T10:29:09;19.80;99.90
25342;DHT22;13298;48.792;9.154;2023-08-30T10:31:37;20.00;99.90
25342;DHT22;13298;48.792;9.154;2023-08-30T10:34:16;20.10;99.90
25342;DHT22;13298;48.792;9.154;2023-08-30T10:36:43;20.10;99.90
25342;DHT22;13298;48.792;9.154;2023-08-30T10:39:14;20.20;99.90
25342;DHT22;13298;48.792;9.154;2023-08-30T10:41:56;20.10;99.90
25342;DHT22;13298;48.792;9.154;2023-08-30T10:44:22;20.20;99.90
25342;DHT22;13298;48.792;9.154;2023-08-30T10:46:54;20.10;99.90
25342;DHT22;13298;48.792;9.154;2023-08-30T10:49:21;19.90;99.90
25342;DHT22;13298;48.792;9.154;2023-08-30T10:51:57;19.80;99.90
25342;DHT22;13298;48.792;9.154;2023-08-30T10:54:24;19.60;99.90
25342;DHT22;13298;48.792;9.154;2023-08-30T10:56:57;19.60;99.90
25342;DHT22;13298;48.792;9.154;2023-08-30T10:59:25;19.80;99.90
25342;DHT22;13298;48.792;9.154;2023-08-30T11:01:52;20.00;99.90
25342;DHT22;13298;48.792;9.154;2023-08-30T11:04:19;20.00;99.90
25342;DHT22;13298;48.792;9.154;2023-08-30T11:06:46;19.90;99.90
25342;DHT22;13298;48.792;9.154;2023-08-30T11:09:14;19.90;99.90
25342;DHT22;13298;48.792;9.154;2023-08-30T11:11:43;19.90;99.90
25342;DHT22;13298;48.792;9.154;2023-08-30T11:14:09;19.90;99.90
25342;DHT22;13298;48.792;9.154;2023-08-30T11:16:36;20.10;99.90
25342;DHT22;13298;48.792;9.154;2023-08-30T11:19:04;20.40;99.90
25342;DHT22;13298;48.792;9.154;2023-08-30T11:21:32;20.80;99.90
25342;DHT22;13298;48.792;9.154;2023-08-30T11:23:59;21.10;99.90
25342;DHT22;13298;48.792;9.154;2023-08-30T11:26:25;21.10;99.90
25342;DHT22;13298;48.792;9.154;2023-08-30T11:28:51;21.20;99.90
25342;DHT22;13298;48.792;9.154;2023-08-30T11:31:19;21.10;99.90
25342;DHT22;13298;48.792;9.154;2023-08-30T11:34:06;20.90;99.90
25342;DHT22;13298;48.792;9.154;2023-08-30T11:36:34;20.40;99.90
25342;DHT22;13298;48.792;9.154;2023-08-30T11:39:01;20.00;99.90
25342;DHT22;13298;48.792;9.154;2023-08-30T11:41:26;19.50;99.90
25342;DHT22;13298;48.792;9.154;2023-08-30T11:43:53;19.10;99.90
25342;DHT22;13298;48.792;9.154;2023-08-30T11:46:20;18.80;99.90
25342;DHT22;13298;48.792;9.154;2023-08-30T11:48:48;18.60;99.90
25342;DHT22;13298;48.792;9.154;2023-08-30T11:51:15;18.40;99.90
25342;DHT22;13298;48.792;9.154;2023-08-30T11:53:42;18.10;99.90
25342;DHT22;13298;48.792;9.154;2023-08-30T11:56:08;17.80;99.90
25342;DHT22;13298;48.792;9.154;2023-08-30T11:58:34;17.50;99.90
25342;DHT22;13298;48.792;9.154;2023-08-30T12:01:01;17.30;99.90
25342;DHT22;13298;48.792;9.154;2023-08-30T12:03:28;16.80;99.90
25342;DHT22;13298;48.792;9.154;2023-08-30T12:05:54;16.50;99.90
25342;DHT22;13298;48.792;9.154;2023-08-30T12:08:23;16.20;99.90
25342;DHT22;13298;48.792;9.154;2023-08-30T12:10:50;16.10;99.90
25342;DHT22;13298;48.792;9.154;2023-08-30T12:13:27;16.10;99.90
25342;DHT22;13298;48.792;9.154;2023-08-30T12:15:54;16.10;99.90
25342;DHT22;13298;48.792;9.154;2023-08-30T12:18:25;16.20;99.90
25342;DHT22;13298;48.792;9.154;2023-08-30T12:21:04;16.30;99.90
25342;DHT22;13298;48.792;9.154;2023-08-30T12:23:31;16.40;99.90
25342;DHT22;13298;48.792;9.154;2023-08-30T12:26:08;16.50;99.90
25342;DHT22;13298;48.792;9.154;2023-08-30T12:28:37;16.60;99.90
25342;DHT22;13298;48.792;9.154;2023-08-30T12:31:07;16.80;99.90
25342;DHT22;13298;48.792;9.154;2023-08-30T12:33:33;17.00;99.90
25342;DHT22;13298;48.792;9.154;2023-08-30T12:36:00;17.10;99.90
25342;DHT22;13298;48.792;9.154;2023-08-30T12:38:26;17.30;99.90
25342;DHT22;13298;48.792;9.154;2023-08-30T12:40:53;17.50;99.90
25342;DHT22;13298;48.792;9.154;2023-08-30T12:43:20;17.60;99.90
25342;DHT22;13298;48.792;9.154;2023-08-30T12:45:47;17.80;99.90
25342;DHT22;13298;48.792;9.154;2023-08-30T12:48:15;18.00;99.90
25342;DHT22;13298;48.792;9.154;2023-08-30T12:50:44;18.20;99.90
25342;DHT22;13298;48.792;9.154;2023-08-30T12:53:12;18.40;99.90
25342;DHT22;13298;48.792;9.154;2023-08-30T12:55:38;18.60;99.90
25342;DHT22;13298;48.792;9.154;2023-08-30T12:58:07;18.90;99.90
25342;DHT22;13298;48.792;9.154;2023-08-30T13:00:35;19.10;99.90
25342;DHT22;13298;48.792;9.154;2023-08-30T13:03:01;19.30;99.90
25342;DHT22;13298;48.792;9.154;2023-08-30T13:05:28;19.50;99.90
25342;DHT22;13298;48.792;9.154;2023-08-30T13:07:56;19.70;99.90
25342;DHT22;13298;48.792;9.154;2023-08-30T13:10:21;19.90;99.90
25342;DHT22;13298;48.792;9.154;2023-08-30T13:12:47;20.00;99.90
25342;DHT22;13298;48.792;9.154;2023-08-30T13:15:13;20.00;99.90
25342;DHT22;13298;48.792;9.154;2023-08-30T13:17:38;20.20;99.90
25342;DHT22;13298;48.792;9.154;2023-08-30T13:20:04;20.30;99.90
25342;DHT22;13298;48.792;9.154;2023-08-30T13:22:30;20.40;99.90
25342;DHT22;13298;48.792;9.154;2023-08-30T13:24:56;20.40;99.90
25342;DHT22;13298;48.792;9.154;2023-08-30T13:27:22;20.40;99.90
25342;DHT22;13298;48.792;9.154;2023-08-30T13:29:48;20.40;99.90
25342;DHT22;13298;48.792;9.154;2023-08-30T13:32:14;20.20;99.90
25342;DHT22;13298;48.792;9.154;2023-08-30T13:34:40;19.90;99.90
25342;DHT22;13298;48.792;9.154;2023-08-30T13:37:05;19.70;99.90
25342;DHT22;13298;48.792;9.154;2023-08-30T13:39:32;19.60;99.90
25342;DHT22;13298;48.792;9.154;2023-08-30T13:41:58;19.60;99.90
25342;DHT22;13298;48.792;9.154;2023-08-30T13:44:23;19.50;99.90
25342;DHT22;13298;48.792;9.154;2023-08-30T13:46:50;19.50;99.90
25342;DHT22;13298;48.792;9.154;2023-08-30T13:49:16;19.40;99.90
25342;DHT22;13298;48.792;9.154;2023-08-30T13:51:44;19.40;99.90
25342;DHT22;13298;48.792;9.154;2023-08-30T13:54:10;19.50;99.90
25342;DHT22;13298;48.792;9.154;2023-08-30T13:56:36;19.40;99.90
25342;DHT22;13298;48.792;9.154;2023-08-30T13:59:03;19.40;99.90
25342;DHT22;13298;48.792;9.154;2023-08-30T14:01:31;19.40;99.90
25342;DHT22;13298;48.792;9.154;2023-08-30T14:03:57;19.40;99.90
25342;DHT22;13298;48.792;9.154;2023-08-30T14:06:23;19.40;99.90
25342;DHT22;13298;48.792;9.154;2023-08-30T14:08:52;19.50;99.90
25342;DHT22;13298;48.792;9.154;2023-08-30T14:11:17;19.60;99.90
25342;DHT22;13298;48.792;9.154;2023-08-30T14:13:43;19.70;99.90
25342;DHT22;13298;48.792;9.154;2023-08-30T14:16:09;19.70;99.90
25342;DHT22;13298;48.792;9.154;2023-08-30T14:18:35;19.80;99.90
25342;DHT22;13298;48.792;9.154;2023-08-30T14:21:01;19.90;99.90
25342;DHT22;13298;48.792;9.154;2023-08-30T14:23:28;19.80;99.90
25342;DHT22;13298;48.792;9.154;2023-08-30T14:25:58;19.70;99.90
25342;DHT22;13298;48.792;9.154;2023-08-30T14:28:25;19.60;99.90
25342;DHT22;13298;48.792;9.154;2023-08-30T14:30:52;19.40;99.90
25342;DHT22;13298;48.792;9.154;2023-08-30T14:33:18;19.30;99.90
25342;DHT22;13298;48.792;9.154;2023-08-30T14:35:44;19.20;99.90
25342;DHT22;13298;48.792;9.154;2023-08-30T14:38:10;19.10;99.90
25342;DHT22;13298;48.792;9.154;2023-08-30T14:40:36;19.00;99.90
25342;DHT22;13298;48.792;9.154;2023-08-30T14:43:04;18.80;99.90
25342;DHT22;13298;48.792;9.154;2023-08-30T14:45:31;18.60;99.90
25342;DHT22;13298;48.792;9.154;2023-08-30T14:47:57;18.50;99.90
25342;DHT22;13298;48.792;9.154;2023-08-30T14:50:23;18.40;99.90
25342;DHT22;13298;48.792;9.154;2023-08-30T14:52:49;18.30;99.90
25342;DHT22;13298;48.792;9.154;2023-08-30T14:55:16;18.20;99.90
25342;DHT22;13298;48.792;9.154;2023-08-30T14:57:42;18.20;99.90
25342;DHT22;13298;48.792;9.154;2023-08-30T15:00:08;18.20;99.90
25342;DHT22;13298;48.792;9.154;2023-08-30T15:02:33;18.20;99.90
25342;DHT22;13298;48.792;9.154;2023-08-30T15:04:59;18.30;99.90
25342;DHT22;13298;48.792;9.154;2023-08-30T15:07:25;18.30;99.90
25342;DHT22;13298;48.792;9.154;2023-08-30T15:09:51;18.50;99.90
25342;DHT22;13298;48.792;9.154;2023-08-30T15:12:17;18.60;99.90
25342;DHT22;13298;48.792;9.154;2023-08-30T15:14:42;18.80;99.90
25342;DHT22;13298;48.792;9.154;2023-08-30T15:17:09;18.90;99.90
25342;DHT22;13298;48.792;9.154;2023-08-30T15:19:37;19.10;99.90
25342;DHT22;13298;48.792;9.154;2023-08-30T15:22:03;19.30;99.90
25342;DHT22;13298;48.792;9.154;2023-08-30T15:24:29;19.40;99.90
25342;DHT22;13298;48.792;9.154;2023-08-30T15:26:54;19.60;99.90
25342;DHT22;13298;48.792;9.154;2023-08-30T15:29:20;19.60;99.90
25342;DHT22;13298;48.792;9.154;2023-08-30T15:31:46;19.60;99.90
25342;DHT22;13298;48.792;9.154;2023-08-30T15:34:18;19.60;99.90